sensor_id;sensor_type;location;lat;lon;timestamp;P1;durP1;ratioP1;P2;durP2;ratioP2
66212;SDS011;53015;50.046;8.238;2023-09-08T00:00:14;10.15;;;3.83;;
66212;SDS011;53015;50.046;8.238;2023-09-08T00:02:40;9.13;;;3.88;;
66212;SDS011;53015;50.046;8.238;2023-09-08T00:05:07;10.20;;;4.05;;
66212;SDS011;53015;50.046;8.238;2023-09-08T00:07:32;3.97;;;3.50;;
66212;SDS011;53015;50.046;8.238;2023-09-08T00:09:58;4.50;;;3.75;;
66212;SDS011;53015;50.046;8.238;2023-09-08T00:12:23;5.07;;;3.45;;
66212;SDS011;53015;50.046;8.238;2023-09-08T00:14:49;5.30;;;3.80;;
66212;SDS011;53015;50.046;8.238;2023-09-08T00:17:14;4.80;;;3.50;;
66212;SDS011;53015;50.046;8.238;2023-09-08T00:19:40;7.78;;;3.67;;
66212;SDS011;53015;50.046;8.238;2023-09-08T00:22:06;5.18;;;3.75;;
66212;SDS011;53015;50.046;8.238;2023-09-08T00:24:32;6.15;;;3.55;;
66212;SDS011;53015;50.046;8.238;2023-09-08T00:26:58;4.35;;;3.30;;
66212;SDS011;53015;50.046;8.238;2023-09-08T00:29:23;6.60;;;3.65;;
66212;SDS011;53015;50.046;8.238;2023-09-08T00:31:49;4.00;;;3.40;;
66212;SDS011;53015;50.046;8.238;2023-09-08T00:34:14;4.28;;;3.20;;
66212;SDS011;53015;50.046;8.238;2023-09-08T00:36:39;4.15;;;3.45;;
66212;SDS011;53015;50.046;8.238;2023-09-08T00:39:06;3.92;;;3.38;;
66212;SDS011;53015;50.046;8.238;2023-09-08T00:41:32;10.82;;;3.70;;
66212;SDS011;53015;50.046;8.238;2023-09-08T00:43:57;5.32;;;3.45;;
66212;SDS011;53015;50.046;8.238;2023-09-08T00:46:23;4.22;;;3.50;;
66212;SDS011;53015;50.046;8.238;2023-09-08T00:48:48;6.35;;;3.47;;
66212;SDS011;53015;50.046;8.238;2023-09-08T00:51:14;4.43;;;3.20;;
66212;SDS011;53015;50.046;8.238;2023-09-08T00:53:40;4.05;;;3.47;;
66212;SDS011;53015;50.046;8.238;2023-09-08T00:56:08;4.75;;;3.45;;
66212;SDS011;53015;50.046;8.238;2023-09-08T00:58:34;3.80;;;3.40;;
66212;SDS011;53015;50.046;8.238;2023-09-08T01:01:00;5.60;;;3.40;;
66212;SDS011;53015;50.046;8.238;2023-09-08T01:03:26;3.97;;;3.35;;
66212;SDS011;53015;50.046;8.238;2023-09-08T01:05:51;5.90;;;3.25;;
66212;SDS011;53015;50.046;8.238;2023-09-08T01:08:17;7.03;;;3.50;;
66212;SDS011;53015;50.046;8.238;2023-09-08T01:10:43;7.28;;;3.75;;
66212;SDS011;53015;50.046;8.238;2023-09-08T01:13:12;4.95;;;3.65;;
66212;SDS011;53015;50.046;8.238;2023-09-08T01:15:37;5.47;;;3.47;;
66212;SDS011;53015;50.046;8.238;2023-09-08T01:18:03;8.82;;;3.83;;
66212;SDS011;53015;50.046;8.238;2023-09-08T01:20:30;5.32;;;3.65;;
66212;SDS011;53015;50.046;8.238;2023-09-08T01:23:17;5.72;;;3.67;;
66212;SDS011;53015;50.046;8.238;2023-09-08T01:25:45;5.13;;;3.30;;
66212;SDS011;53015;50.046;8.238;2023-09-08T01:28:14;6.13;;;3.80;;
66212;SDS011;53015;50.046;8.238;2023-09-08T01:30:40;5.60;;;3.67;;
66212;SDS011;53015;50.046;8.238;2023-09-08T01:33:06;6.25;;;3.70;;
66212;SDS011;53015;50.046;8.238;2023-09-08T01:35:31;4.55;;;3.63;;
66212;SDS011;53015;50.046;8.238;2023-09-08T01:37:57;4.32;;;3.35;;
66212;SDS011;53015;50.046;8.238;2023-09-08T01:40:23;4.55;;;3.53;;
66212;SDS011;53015;50.046;8.238;2023-09-08T01:42:50;4.20;;;3.53;;
66212;SDS011;53015;50.046;8.238;2023-09-08T01:45:16;5.38;;;3.75;;
66212;SDS011;53015;50.046;8.238;2023-09-08T01:47:42;4.45;;;3.40;;
66212;SDS011;53015;50.046;8.238;2023-09-08T01:50:08;4.47;;;3.20;;
66212;SDS011;53015;50.046;8.238;2023-09-08T01:52:34;6.25;;;3.55;;
66212;SDS011;53015;50.046;8.238;2023-09-08T01:54:59;5.20;;;3.50;;
66212;SDS011;53015;50.046;8.238;2023-09-08T01:57:25;6.80;;;3.40;;
66212;SDS011;53015;50.046;8.238;2023-09-08T01:59:52;5.63;;;4.25;;
66212;SDS011;53015;50.046;8.238;2023-09-08T02:02:17;4.97;;;3.72;;
66212;SDS011;53015;50.046;8.238;2023-09-08T02:04:42;7.25;;;4.00;;
66212;SDS011;53015;50.046;8.238;2023-09-08T02:07:08;6.88;;;3.90;;
66212;SDS011;53015;50.046;8.238;2023-09-08T02:09:34;4.78;;;3.67;;
66212;SDS011;53015;50.046;8.238;2023-09-08T02:12:00;5.68;;;3.78;;
66212;SDS011;53015;50.046;8.238;2023-09-08T02:14:26;6.00;;;4.28;;
66212;SDS011;53015;50.046;8.238;2023-09-08T02:16:53;4.68;;;3.85;;
66212;SDS011;53015;50.046;8.238;2023-09-08T02:19:19;4.30;;;3.67;;
66212;SDS011;53015;50.046;8.238;2023-09-08T02:21:44;5.82;;;3.70;;
66212;SDS011;53015;50.046;8.238;2023-09-08T02:24:10;8.32;;;3.83;;
66212;SDS011;53015;50.046;8.238;2023-09-08T02:26:36;4.60;;;3.33;;
66212;SDS011;53015;50.046;8.238;2023-09-08T02:29:02;4.38;;;3.38;;
66212;SDS011;53015;50.046;8.238;2023-09-08T02:31:28;3.60;;;3.30;;
66212;SDS011;53015;50.046;8.238;2023-09-08T02:33:54;5.18;;;3.80;;
66212;SDS011;53015;50.046;8.238;2023-09-08T02:36:20;5.60;;;3.40;;
66212;SDS011;53015;50.046;8.238;2023-09-08T02:38:45;5.60;;;3.58;;
66212;SDS011;53015;50.046;8.238;2023-09-08T02:41:11;4.85;;;3.42;;
66212;SDS011;53015;50.046;8.238;2023-09-08T02:43:36;4.22;;;3.40;;
66212;SDS011;53015;50.046;8.238;2023-09-08T02:46:02;6.93;;;4.20;;
66212;SDS011;53015;50.046;8.238;2023-09-08T02:48:27;4.68;;;3.65;;
66212;SDS011;53015;50.046;8.238;2023-09-08T02:50:54;6.70;;;3.75;;
66212;SDS011;53015;50.046;8.238;2023-09-08T02:53:19;4.30;;;3.47;;
66212;SDS011;53015;50.046;8.238;2023-09-08T02:55:45;8.95;;;4.20;;
66212;SDS011;53015;50.046;8.238;2023-09-08T02:58:11;4.38;;;3.65;;
66212;SDS011;53015;50.046;8.238;2023-09-08T03:00:36;7.40;;;3.92;;
66212;SDS011;53015;50.046;8.238;2023-09-08T03:03:02;4.65;;;4.18;;
66212;SDS011;53015;50.046;8.238;2023-09-08T03:05:27;7.95;;;3.95;;
66212;SDS011;53015;50.046;8.238;2023-09-08T03:07:54;9.63;;;4.20;;
66212;SDS011;53015;50.046;8.238;2023-09-08T03:10:20;6.00;;;4.03;;
66212;SDS011;53015;50.046;8.238;2023-09-08T03:12:45;8.63;;;3.85;;
66212;SDS011;53015;50.046;8.238;2023-09-08T03:15:11;8.38;;;4.20;;
66212;SDS011;53015;50.046;8.238;2023-09-08T03:17:36;5.63;;;3.55;;
66212;SDS011;53015;50.046;8.238;2023-09-08T03:20:02;6.88;;;3.75;;
66212;SDS011;53015;50.046;8.238;2023-09-08T03:22:28;9.38;;;3.83;;
66212;SDS011;53015;50.046;8.238;2023-09-08T03:24:54;7.68;;;3.95;;
66212;SDS011;53015;50.046;8.238;2023-09-08T03:27:20;5.15;;;3.90;;
66212;SDS011;53015;50.046;8.238;2023-09-08T03:29:45;4.60;;;3.58;;
66212;SDS011;53015;50.046;8.238;2023-09-08T03:32:11;5.88;;;3.85;;
66212;SDS011;53015;50.046;8.238;2023-09-08T03:34:36;5.30;;;3.78;;
66212;SDS011;53015;50.046;8.238;2023-09-08T03:37:02;7.18;;;3.90;;
66212;SDS011;53015;50.046;8.238;2023-09-08T03:39:27;7.10;;;3.95;;
66212;SDS011;53015;50.046;8.238;2023-09-08T03:41:54;5.00;;;3.92;;
66212;SDS011;53015;50.046;8.238;2023-09-08T03:44:20;9.98;;;3.90;;
66212;SDS011;53015;50.046;8.238;2023-09-08T03:46:45;7.65;;;4.20;;
66212;SDS011;53015;50.046;8.238;2023-09-08T03:49:11;5.55;;;4.00;;
66212;SDS011;53015;50.046;8.238;2023-09-08T03:51:36;6.18;;;3.92;;
66212;SDS011;53015;50.046;8.238;2023-09-08T03:54:02;7.28;;;4.28;;
66212;SDS011;53015;50.046;8.238;2023-09-08T03:56:27;6.80;;;4.13;;
66212;SDS011;53015;50.046;8.238;2023-09-08T03:58:54;7.25;;;3.90;;
66212;SDS011;53015;50.046;8.238;2023-09-08T04:01:20;9.02;;;4.00;;
66212;SDS011;53015;50.046;8.238;2023-09-08T04:03:45;6.47;;;4.28;;
66212;SDS011;53015;50.046;8.238;2023-09-08T04:06:10;6.30;;;3.80;;
66212;SDS011;53015;50.046;8.238;2023-09-08T04:08:36;6.68;;;4.30;;
66212;SDS011;53015;50.046;8.238;2023-09-08T04:11:01;7.35;;;4.18;;
66212;SDS011;53015;50.046;8.238;2023-09-08T04:13:27;6.90;;;4.00;;
66212;SDS011;53015;50.046;8.238;2023-09-08T04:15:54;5.80;;;4.15;;
66212;SDS011;53015;50.046;8.238;2023-09-08T04:18:19;6.32;;;4.45;;
66212;SDS011;53015;50.046;8.238;2023-09-08T04:20:45;9.05;;;4.00;;
66212;SDS011;53015;50.046;8.238;2023-09-08T04:23:10;6.68;;;4.00;;
66212;SDS011;53015;50.046;8.238;2023-09-08T04:25:36;4.97;;;3.67;;
66212;SDS011;53015;50.046;8.238;2023-09-08T04:28:01;7.40;;;3.80;;
66212;SDS011;53015;50.046;8.238;2023-09-08T04:30:27;9.35;;;4.00;;
66212;SDS011;53015;50.046;8.238;2023-09-08T04:32:53;7.28;;;4.05;;
66212;SDS011;53015;50.046;8.238;2023-09-08T04:35:19;5.00;;;3.75;;
66212;SDS011;53015;50.046;8.238;2023-09-08T04:37:44;8.35;;;4.60;;
66212;SDS011;53015;50.046;8.238;2023-09-08T04:40:10;6.70;;;4.50;;
66212;SDS011;53015;50.046;8.238;2023-09-08T04:42:36;6.60;;;4.57;;
66212;SDS011;53015;50.046;8.238;2023-09-08T04:45:01;7.40;;;4.13;;
66212;SDS011;53015;50.046;8.238;2023-09-08T04:47:27;7.75;;;4.38;;
66212;SDS011;53015;50.046;8.238;2023-09-08T04:49:54;5.85;;;4.28;;
66212;SDS011;53015;50.046;8.238;2023-09-08T04:52:19;9.73;;;4.35;;
66212;SDS011;53015;50.046;8.238;2023-09-08T04:54:45;6.10;;;4.63;;
66212;SDS011;53015;50.046;8.238;2023-09-08T04:57:10;5.70;;;4.55;;
66212;SDS011;53015;50.046;8.238;2023-09-08T04:59:36;5.55;;;4.40;;
66212;SDS011;53015;50.046;8.238;2023-09-08T05:02:01;7.20;;;4.72;;
66212;SDS011;53015;50.046;8.238;2023-09-08T05:04:27;6.35;;;4.30;;
66212;SDS011;53015;50.046;8.238;2023-09-08T05:06:53;13.23;;;4.30;;
66212;SDS011;53015;50.046;8.238;2023-09-08T05:09:19;8.10;;;4.47;;
66212;SDS011;53015;50.046;8.238;2023-09-08T05:11:44;7.07;;;4.50;;
66212;SDS011;53015;50.046;8.238;2023-09-08T05:14:10;6.88;;;4.15;;
66212;SDS011;53015;50.046;8.238;2023-09-08T05:16:35;7.07;;;4.32;;
66212;SDS011;53015;50.046;8.238;2023-09-08T05:19:01;8.95;;;4.72;;
66212;SDS011;53015;50.046;8.238;2023-09-08T05:21:26;10.52;;;4.10;;
66212;SDS011;53015;50.046;8.238;2023-09-08T05:23:53;8.40;;;4.45;;
66212;SDS011;53015;50.046;8.238;2023-09-08T05:26:18;9.52;;;4.38;;
66212;SDS011;53015;50.046;8.238;2023-09-08T05:28:44;5.60;;;4.05;;
66212;SDS011;53015;50.046;8.238;2023-09-08T05:31:09;4.82;;;4.18;;
66212;SDS011;53015;50.046;8.238;2023-09-08T05:33:35;10.40;;;4.47;;
66212;SDS011;53015;50.046;8.238;2023-09-08T05:36:00;7.25;;;4.55;;
66212;SDS011;53015;50.046;8.238;2023-09-08T05:38:26;8.52;;;4.30;;
66212;SDS011;53015;50.046;8.238;2023-09-08T05:40:53;9.43;;;4.60;;
66212;SDS011;53015;50.046;8.238;2023-09-08T05:43:18;9.45;;;4.53;;
66212;SDS011;53015;50.046;8.238;2023-09-08T05:45:44;11.35;;;4.68;;
66212;SDS011;53015;50.046;8.238;2023-09-08T05:48:09;7.15;;;4.95;;
66212;SDS011;53015;50.046;8.238;2023-09-08T05:50:35;7.70;;;4.75;;
66212;SDS011;53015;50.046;8.238;2023-09-08T05:53:01;11.80;;;5.72;;
66212;SDS011;53015;50.046;8.238;2023-09-08T05:55:27;9.90;;;5.60;;
66212;SDS011;53015;50.046;8.238;2023-09-08T05:57:53;10.93;;;5.40;;
66212;SDS011;53015;50.046;8.238;2023-09-08T06:00:19;7.82;;;4.97;;
66212;SDS011;53015;50.046;8.238;2023-09-08T06:02:44;9.52;;;5.00;;
66212;SDS011;53015;50.046;8.238;2023-09-08T06:05:10;13.65;;;5.30;;
66212;SDS011;53015;50.046;8.238;2023-09-08T06:07:35;7.30;;;5.03;;
66212;SDS011;53015;50.046;8.238;2023-09-08T06:10:01;9.95;;;5.28;;
66212;SDS011;53015;50.046;8.238;2023-09-08T06:12:26;9.65;;;5.50;;
66212;SDS011;53015;50.046;8.238;2023-09-08T06:14:53;9.52;;;5.38;;
66212;SDS011;53015;50.046;8.238;2023-09-08T06:17:19;8.52;;;5.88;;
66212;SDS011;53015;50.046;8.238;2023-09-08T06:19:44;18.25;;;6.50;;
66212;SDS011;53015;50.046;8.238;2023-09-08T06:22:10;10.88;;;6.18;;
66212;SDS011;53015;50.046;8.238;2023-09-08T06:24:35;10.13;;;6.03;;
66212;SDS011;53015;50.046;8.238;2023-09-08T06:27:01;17.23;;;5.97;;
66212;SDS011;53015;50.046;8.238;2023-09-08T06:29:26;11.18;;;5.75;;
66212;SDS011;53015;50.046;8.238;2023-09-08T06:31:53;9.98;;;6.13;;
66212;SDS011;53015;50.046;8.238;2023-09-08T06:34:18;8.98;;;6.20;;
66212;SDS011;53015;50.046;8.238;2023-09-08T06:36:44;10.10;;;5.43;;
66212;SDS011;53015;50.046;8.238;2023-09-08T06:39:09;8.50;;;5.80;;
66212;SDS011;53015;50.046;8.238;2023-09-08T06:41:35;10.50;;;5.97;;
66212;SDS011;53015;50.046;8.238;2023-09-08T06:44:00;9.55;;;6.00;;
66212;SDS011;53015;50.046;8.238;2023-09-08T06:46:25;11.13;;;5.57;;
66212;SDS011;53015;50.046;8.238;2023-09-08T06:48:52;10.90;;;6.53;;
66212;SDS011;53015;50.046;8.238;2023-09-08T06:51:18;10.73;;;5.53;;
66212;SDS011;53015;50.046;8.238;2023-09-08T06:53:43;10.60;;;6.53;;
66212;SDS011;53015;50.046;8.238;2023-09-08T06:56:09;9.43;;;6.03;;
66212;SDS011;53015;50.046;8.238;2023-09-08T06:58:34;10.73;;;6.45;;
66212;SDS011;53015;50.046;8.238;2023-09-08T07:00:59;8.60;;;5.72;;
66212;SDS011;53015;50.046;8.238;2023-09-08T07:03:25;11.52;;;6.25;;
66212;SDS011;53015;50.046;8.238;2023-09-08T07:05:52;11.35;;;5.65;;
66212;SDS011;53015;50.046;8.238;2023-09-08T07:08:17;12.30;;;6.00;;
66212;SDS011;53015;50.046;8.238;2023-09-08T07:10:43;9.43;;;5.22;;
66212;SDS011;53015;50.046;8.238;2023-09-08T07:13:09;13.80;;;5.32;;
66212;SDS011;53015;50.046;8.238;2023-09-08T07:15:34;14.75;;;5.03;;
66212;SDS011;53015;50.046;8.238;2023-09-08T07:17:59;13.82;;;5.55;;
66212;SDS011;53015;50.046;8.238;2023-09-08T07:20:25;9.45;;;4.57;;
66212;SDS011;53015;50.046;8.238;2023-09-08T07:22:52;11.45;;;3.95;;
66212;SDS011;53015;50.046;8.238;2023-09-08T07:25:17;14.23;;;3.80;;
66212;SDS011;53015;50.046;8.238;2023-09-08T07:27:43;7.20;;;3.53;;
66212;SDS011;53015;50.046;8.238;2023-09-08T07:30:09;4.97;;;3.15;;
66212;SDS011;53015;50.046;8.238;2023-09-08T07:32:34;4.85;;;3.60;;
66212;SDS011;53015;50.046;8.238;2023-09-08T07:35:00;7.30;;;3.97;;
66212;SDS011;53015;50.046;8.238;2023-09-08T07:37:25;8.27;;;3.25;;
66212;SDS011;53015;50.046;8.238;2023-09-08T07:39:52;9.32;;;3.47;;
66212;SDS011;53015;50.046;8.238;2023-09-08T07:42:18;7.28;;;3.10;;
66212;SDS011;53015;50.046;8.238;2023-09-08T07:44:44;5.45;;;3.45;;
66212;SDS011;53015;50.046;8.238;2023-09-08T07:47:09;7.63;;;3.38;;
66212;SDS011;53015;50.046;8.238;2023-09-08T07:49:35;10.15;;;3.05;;
66212;SDS011;53015;50.046;8.238;2023-09-08T07:52:00;5.45;;;3.00;;
66212;SDS011;53015;50.046;8.238;2023-09-08T07:54:26;4.40;;;2.92;;
66212;SDS011;53015;50.046;8.238;2023-09-08T07:56:53;8.35;;;3.33;;
66212;SDS011;53015;50.046;8.238;2023-09-08T07:59:18;7.47;;;3.17;;
66212;SDS011;53015;50.046;8.238;2023-09-08T08:01:44;6.53;;;3.40;;
66212;SDS011;53015;50.046;8.238;2023-09-08T08:04:10;5.50;;;3.13;;
66212;SDS011;53015;50.046;8.238;2023-09-08T08:06:35;5.15;;;2.70;;
66212;SDS011;53015;50.046;8.238;2023-09-08T08:09:02;5.35;;;3.33;;
66212;SDS011;53015;50.046;8.238;2023-09-08T08:11:28;5.68;;;2.95;;
66212;SDS011;53015;50.046;8.238;2023-09-08T08:13:55;9.05;;;3.40;;
66212;SDS011;53015;50.046;8.238;2023-09-08T08:16:20;10.50;;;3.45;;
66212;SDS011;53015;50.046;8.238;2023-09-08T08:18:46;11.10;;;3.60;;
66212;SDS011;53015;50.046;8.238;2023-09-08T08:21:11;5.38;;;3.08;;
66212;SDS011;53015;50.046;8.238;2023-09-08T08:23:37;7.90;;;3.40;;
66212;SDS011;53015;50.046;8.238;2023-09-08T08:26:02;6.32;;;3.00;;
66212;SDS011;53015;50.046;8.238;2023-09-08T08:28:28;6.55;;;3.53;;
66212;SDS011;53015;50.046;8.238;2023-09-08T08:30:55;7.68;;;3.38;;
66212;SDS011;53015;50.046;8.238;2023-09-08T08:33:21;4.07;;;3.10;;
66212;SDS011;53015;50.046;8.238;2023-09-08T08:35:49;7.07;;;3.22;;
66212;SDS011;53015;50.046;8.238;2023-09-08T08:38:16;5.15;;;3.28;;
66212;SDS011;53015;50.046;8.238;2023-09-08T08:40:41;8.60;;;3.70;;
66212;SDS011;53015;50.046;8.238;2023-09-08T08:43:07;10.63;;;3.53;;
66212;SDS011;53015;50.046;8.238;2023-09-08T08:45:33;5.45;;;3.00;;
66212;SDS011;53015;50.046;8.238;2023-09-08T08:48:00;5.93;;;3.03;;
66212;SDS011;53015;50.046;8.238;2023-09-08T08:50:27;9.30;;;3.10;;
66212;SDS011;53015;50.046;8.238;2023-09-08T08:52:54;9.55;;;3.97;;
66212;SDS011;53015;50.046;8.238;2023-09-08T08:55:19;7.82;;;3.40;;
66212;SDS011;53015;50.046;8.238;2023-09-08T08:57:45;7.78;;;3.70;;
66212;SDS011;53015;50.046;8.238;2023-09-08T09:00:11;9.23;;;3.40;;
66212;SDS011;53015;50.046;8.238;2023-09-08T09:02:39;7.28;;;3.30;;
66212;SDS011;53015;50.046;8.238;2023-09-08T09:05:07;11.07;;;3.20;;
66212;SDS011;53015;50.046;8.238;2023-09-08T09:07:33;6.00;;;3.10;;
66212;SDS011;53015;50.046;8.238;2023-09-08T09:09:59;5.70;;;3.33;;
66212;SDS011;53015;50.046;8.238;2023-09-08T09:12:25;4.75;;;3.40;;
66212;SDS011;53015;50.046;8.238;2023-09-08T09:14:52;5.90;;;3.47;;
66212;SDS011;53015;50.046;8.238;2023-09-08T09:17:18;9.90;;;3.15;;
66212;SDS011;53015;50.046;8.238;2023-09-08T09:19:43;6.70;;;3.40;;
66212;SDS011;53015;50.046;8.238;2023-09-08T09:22:10;4.85;;;3.35;;
66212;SDS011;53015;50.046;8.238;2023-09-08T09:24:37;4.55;;;3.40;;
66212;SDS011;53015;50.046;8.238;2023-09-08T09:27:04;9.50;;;3.42;;
66212;SDS011;53015;50.046;8.238;2023-09-08T09:29:30;7.15;;;3.63;;
66212;SDS011;53015;50.046;8.238;2023-09-08T09:31:56;3.65;;;2.92;;
66212;SDS011;53015;50.046;8.238;2023-09-08T09:34:22;8.43;;;3.10;;
66212;SDS011;53015;50.046;8.238;2023-09-08T09:36:48;6.18;;;3.05;;
66212;SDS011;53015;50.046;8.238;2023-09-08T09:39:17;10.73;;;3.75;;
66212;SDS011;53015;50.046;8.238;2023-09-08T09:41:43;6.70;;;3.42;;
66212;SDS011;53015;50.046;8.238;2023-09-08T09:44:09;8.95;;;3.17;;
66212;SDS011;53015;50.046;8.238;2023-09-08T09:46:35;5.95;;;2.95;;
66212;SDS011;53015;50.046;8.238;2023-09-08T09:49:01;5.30;;;3.00;;
66212;SDS011;53015;50.046;8.238;2023-09-08T09:51:27;4.40;;;3.33;;
66212;SDS011;53015;50.046;8.238;2023-09-08T09:53:52;8.15;;;3.08;;
66212;SDS011;53015;50.046;8.238;2023-09-08T09:56:21;6.53;;;3.20;;
66212;SDS011;53015;50.046;8.238;2023-09-08T09:58:47;5.05;;;3.08;;
66212;SDS011;53015;50.046;8.238;2023-09-08T10:01:13;7.25;;;3.22;;
66212;SDS011;53015;50.046;8.238;2023-09-08T10:03:40;6.22;;;3.22;;
66212;SDS011;53015;50.046;8.238;2023-09-08T10:06:05;6.63;;;3.30;;
66212;SDS011;53015;50.046;8.238;2023-09-08T10:08:32;6.03;;;3.15;;
66212;SDS011;53015;50.046;8.238;2023-09-08T10:10:59;7.63;;;2.88;;
66212;SDS011;53015;50.046;8.238;2023-09-08T10:13:30;7.68;;;3.33;;
66212;SDS011;53015;50.046;8.238;2023-09-08T10:15:58;8.57;;;3.90;;
66212;SDS011;53015;50.046;8.238;2023-09-08T10:18:27;16.55;;;3.58;;
66212;SDS011;53015;50.046;8.238;2023-09-08T10:20:54;10.45;;;3.70;;
66212;SDS011;53015;50.046;8.238;2023-09-08T10:23:31;6.15;;;3.08;;
66212;SDS011;53015;50.046;8.238;2023-09-08T10:26:02;6.13;;;3.08;;
66212;SDS011;53015;50.046;8.238;2023-09-08T10:28:31;6.85;;;3.42;;
66212;SDS011;53015;50.046;8.238;2023-09-08T10:30:57;5.25;;;3.38;;
66212;SDS011;53015;50.046;8.238;2023-09-08T10:33:23;9.48;;;3.38;;
66212;SDS011;53015;50.046;8.238;2023-09-08T10:35:50;6.72;;;3.15;;
66212;SDS011;53015;50.046;8.238;2023-09-08T10:38:22;9.93;;;3.65;;
66212;SDS011;53015;50.046;8.238;2023-09-08T10:40:49;7.80;;;3.40;;
66212;SDS011;53015;50.046;8.238;2023-09-08T10:43:14;5.47;;;3.22;;
66212;SDS011;53015;50.046;8.238;2023-09-08T10:45:42;7.22;;;3.58;;
66212;SDS011;53015;50.046;8.238;2023-09-08T10:48:07;5.65;;;3.15;;
66212;SDS011;53015;50.046;8.238;2023-09-08T10:50:34;15.90;;;3.63;;
66212;SDS011;53015;50.046;8.238;2023-09-08T10:53:04;9.80;;;3.40;;
66212;SDS011;53015;50.046;8.238;2023-09-08T10:55:34;7.53;;;3.10;;
66212;SDS011;53015;50.046;8.238;2023-09-08T10:58:00;6.25;;;3.20;;
66212;SDS011;53015;50.046;8.238;2023-09-08T11:00:26;6.13;;;3.20;;
66212;SDS011;53015;50.046;8.238;2023-09-08T11:02:52;5.65;;;3.35;;
66212;SDS011;53015;50.046;8.238;2023-09-08T11:05:18;7.70;;;3.38;;
66212;SDS011;53015;50.046;8.238;2023-09-08T11:07:44;8.80;;;3.22;;
66212;SDS011;53015;50.046;8.238;2023-09-08T11:10:11;7.55;;;3.50;;
66212;SDS011;53015;50.046;8.238;2023-09-08T11:12:37;7.68;;;3.45;;
66212;SDS011;53015;50.046;8.238;2023-09-08T11:15:03;7.25;;;3.30;;
66212;SDS011;53015;50.046;8.238;2023-09-08T11:17:30;8.05;;;3.45;;
66212;SDS011;53015;50.046;8.238;2023-09-08T11:19:57;6.82;;;3.10;;
66212;SDS011;53015;50.046;8.238;2023-09-08T11:22:23;10.57;;;3.65;;
66212;SDS011;53015;50.046;8.238;2023-09-08T11:24:50;7.85;;;3.20;;
66212;SDS011;53015;50.046;8.238;2023-09-08T11:27:16;8.27;;;3.38;;
66212;SDS011;53015;50.046;8.238;2023-09-08T11:29:41;6.63;;;3.40;;
66212;SDS011;53015;50.046;8.238;2023-09-08T11:32:08;8.70;;;3.88;;
66212;SDS011;53015;50.046;8.238;2023-09-08T11:34:34;5.68;;;3.22;;
66212;SDS011;53015;50.046;8.238;2023-09-08T11:37:01;6.55;;;3.15;;
66212;SDS011;53015;50.046;8.238;2023-09-08T11:39:35;8.00;;;3.20;;
66212;SDS011;53015;50.046;8.238;2023-09-08T11:42:01;4.78;;;3.13;;
66212;SDS011;53015;50.046;8.238;2023-09-08T11:44:27;14.68;;;4.00;;
66212;SDS011;53015;50.046;8.238;2023-09-08T11:46:53;5.68;;;3.40;;
66212;SDS011;53015;50.046;8.238;2023-09-08T11:49:19;6.65;;;3.20;;
66212;SDS011;53015;50.046;8.238;2023-09-08T11:51:45;6.65;;;3.25;;
66212;SDS011;53015;50.046;8.238;2023-09-08T11:54:12;9.75;;;3.42;;
66212;SDS011;53015;50.046;8.238;2023-09-08T11:56:38;4.63;;;3.38;;
66212;SDS011;53015;50.046;8.238;2023-09-08T11:59:03;5.25;;;3.13;;
66212;SDS011;53015;50.046;8.238;2023-09-08T12:01:29;6.97;;;3.47;;
66212;SDS011;53015;50.046;8.238;2023-09-08T12:03:55;5.72;;;3.60;;
66212;SDS011;53015;50.046;8.238;2023-09-08T12:06:23;6.47;;;3.13;;
66212;SDS011;53015;50.046;8.238;2023-09-08T12:08:49;4.88;;;2.88;;
66212;SDS011;53015;50.046;8.238;2023-09-08T12:11:16;4.60;;;3.00;;
66212;SDS011;53015;50.046;8.238;2023-09-08T12:13:41;4.20;;;2.95;;
66212;SDS011;53015;50.046;8.238;2023-09-08T12:16:17;6.07;;;3.40;;
66212;SDS011;53015;50.046;8.238;2023-09-08T12:18:42;8.70;;;2.88;;
66212;SDS011;53015;50.046;8.238;2023-09-08T12:21:08;7.20;;;3.05;;
66212;SDS011;53015;50.046;8.238;2023-09-08T12:23:33;4.22;;;3.03;;
66212;SDS011;53015;50.046;8.238;2023-09-08T12:25:59;6.90;;;3.25;;
66212;SDS011;53015;50.046;8.238;2023-09-08T12:28:29;5.95;;;3.25;;
66212;SDS011;53015;50.046;8.238;2023-09-08T12:30:55;5.85;;;3.30;;
66212;SDS011;53015;50.046;8.238;2023-09-08T12:33:21;6.53;;;3.50;;
66212;SDS011;53015;50.046;8.238;2023-09-08T12:35:47;10.25;;;3.10;;
66212;SDS011;53015;50.046;8.238;2023-09-08T12:38:13;7.80;;;3.22;;
66212;SDS011;53015;50.046;8.238;2023-09-08T12:40:39;4.60;;;2.90;;
66212;SDS011;53015;50.046;8.238;2023-09-08T12:43:05;5.28;;;3.08;;
66212;SDS011;53015;50.046;8.238;2023-09-08T12:45:32;5.32;;;3.30;;
66212;SDS011;53015;50.046;8.238;2023-09-08T12:47:58;5.53;;;2.83;;
66212;SDS011;53015;50.046;8.238;2023-09-08T12:50:24;7.57;;;3.42;;
66212;SDS011;53015;50.046;8.238;2023-09-08T12:52:50;5.45;;;3.22;;
66212;SDS011;53015;50.046;8.238;2023-09-08T12:55:15;10.02;;;3.30;;
66212;SDS011;53015;50.046;8.238;2023-09-08T12:57:41;5.95;;;3.30;;
66212;SDS011;53015;50.046;8.238;2023-09-08T13:00:07;4.20;;;3.50;;
66212;SDS011;53015;50.046;8.238;2023-09-08T13:02:34;4.22;;;3.38;;
66212;SDS011;53015;50.046;8.238;2023-09-08T13:05:00;6.55;;;3.17;;
66212;SDS011;53015;50.046;8.238;2023-09-08T13:07:26;4.82;;;3.03;;
66212;SDS011;53015;50.046;8.238;2023-09-08T13:09:51;6.72;;;2.90;;
66212;SDS011;53015;50.046;8.238;2023-09-08T13:12:17;3.42;;;2.75;;
66212;SDS011;53015;50.046;8.238;2023-09-08T13:14:43;6.47;;;2.90;;
66212;SDS011;53015;50.046;8.238;2023-09-08T13:17:10;4.72;;;3.40;;
66212;SDS011;53015;50.046;8.238;2023-09-08T13:19:37;4.78;;;2.80;;
66212;SDS011;53015;50.046;8.238;2023-09-08T13:22:03;7.95;;;3.40;;
66212;SDS011;53015;50.046;8.238;2023-09-08T13:24:28;3.70;;;3.03;;
66212;SDS011;53015;50.046;8.238;2023-09-08T13:26:54;8.63;;;3.17;;
66212;SDS011;53015;50.046;8.238;2023-09-08T13:29:19;6.40;;;3.50;;
66212;SDS011;53015;50.046;8.238;2023-09-08T13:31:45;5.07;;;3.40;;
66212;SDS011;53015;50.046;8.238;2023-09-08T13:34:10;6.85;;;3.47;;
66212;SDS011;53015;50.046;8.238;2023-09-08T13:36:37;10.80;;;3.20;;
66212;SDS011;53015;50.046;8.238;2023-09-08T13:39:03;9.13;;;3.25;;
66212;SDS011;53015;50.046;8.238;2023-09-08T13:41:43;7.90;;;3.00;;
66212;SDS011;53015;50.046;8.238;2023-09-08T13:44:11;6.53;;;3.40;;
66212;SDS011;53015;50.046;8.238;2023-09-08T13:46:37;4.95;;;3.08;;
66212;SDS011;53015;50.046;8.238;2023-09-08T13:49:02;4.45;;;3.10;;
66212;SDS011;53015;50.046;8.238;2023-09-08T13:51:28;4.82;;;3.38;;
66212;SDS011;53015;50.046;8.238;2023-09-08T13:53:55;3.90;;;3.00;;
66212;SDS011;53015;50.046;8.238;2023-09-08T13:56:20;7.72;;;3.60;;
66212;SDS011;53015;50.046;8.238;2023-09-08T13:58:46;5.80;;;3.22;;
66212;SDS011;53015;50.046;8.238;2023-09-08T14:01:11;3.17;;;2.88;;
66212;SDS011;53015;50.046;8.238;2023-09-08T14:03:37;5.80;;;3.22;;
66212;SDS011;53015;50.046;8.238;2023-09-08T14:06:02;6.45;;;3.00;;
66212;SDS011;53015;50.046;8.238;2023-09-08T14:08:28;3.88;;;3.20;;
66212;SDS011;53015;50.046;8.238;2023-09-08T14:10:55;5.53;;;3.35;;
66212;SDS011;53015;50.046;8.238;2023-09-08T14:13:20;4.35;;;2.85;;
66212;SDS011;53015;50.046;8.238;2023-09-08T14:15:46;4.15;;;3.00;;
66212;SDS011;53015;50.046;8.238;2023-09-08T14:18:11;4.35;;;3.25;;
66212;SDS011;53015;50.046;8.238;2023-09-08T14:20:37;3.83;;;3.08;;
66212;SDS011;53015;50.046;8.238;2023-09-08T14:23:02;5.22;;;2.90;;
66212;SDS011;53015;50.046;8.238;2023-09-08T14:25:28;4.90;;;2.88;;
66212;SDS011;53015;50.046;8.238;2023-09-08T14:27:55;4.53;;;3.05;;
66212;SDS011;53015;50.046;8.238;2023-09-08T14:30:20;4.57;;;3.17;;
66212;SDS011;53015;50.046;8.238;2023-09-08T14:32:46;4.25;;;2.80;;
66212;SDS011;53015;50.046;8.238;2023-09-08T14:35:11;5.45;;;2.75;;
66212;SDS011;53015;50.046;8.238;2023-09-08T14:37:36;4.30;;;2.88;;